createdAt,value
2022-10-15T08:00:24.343Z,32.60
2022-10-15T08:08:47.873Z,27.30
2022-10-15T08:17:11.163Z,33.50
2022-10-15T08:25:33.875Z,25.50
2022-10-15T08:33:56.573Z,25.70
2022-10-15T08:42:44.927Z,23.60
2022-10-15T08:59:48.454Z,21.40
2022-10-15T09:08:22.037Z,21.20
2022-10-15T09:16:49.082Z,20.90
2022-10-15T09:25:21.515Z,21.80
2022-10-15T09:33:52.538Z,18.80
2022-10-15T09:42:39.135Z,17.70
2022-10-15T09:51:34.095Z,16.80
2022-10-15T10:00:02.002Z,15.90
2022-10-15T10:08:41.711Z,19.60
2022-10-15T10:17:20.309Z,14.40
2022-10-15T10:25:44.492Z,13.70
2022-10-15T10:34:08.057Z,15.50
2022-10-15T10:42:34.375Z,15.30
2022-10-15T10:51:08.019Z,17.90
2022-10-15T10:59:43.962Z,16.00
2022-10-15T11:08:37.554Z,24.10
2022-10-15T11:17:09.272Z,26.20
2022-10-15T11:25:44.092Z,22.50
2022-10-15T11:34:49.682Z,16.60
2022-10-15T11:43:34.636Z,16.40
2022-10-15T11:52:16.438Z,15.50
2022-10-15T12:00:49.623Z,16.00
2022-10-15T12:09:21.248Z,17.20
2022-10-15T12:18:09.637Z,16.60
2022-10-15T12:26:34.809Z,15.20
2022-10-15T12:35:01.345Z,17.00
2022-10-15T12:43:25.498Z,11.90
2022-10-15T12:51:50.594Z,17.90
2022-10-15T13:00:29.157Z,18.10
2022-10-15T13:08:54.352Z,16.00
2022-10-15T13:17:20.630Z,20.80
2022-10-15T13:25:43.855Z,15.70
2022-10-15T13:34:12.833Z,15.30
2022-10-15T13:42:35.958Z,22.90
2022-10-15T13:51:03.843Z,24.80
2022-10-15T13:59:33.962Z,28.50
2022-10-15T14:07:56.867Z,25.60
2022-10-15T14:16:40.114Z,22.90
2022-10-15T14:25:10.243Z,24.70
2022-10-15T14:33:39.537Z,24.70
2022-10-15T14:42:05.098Z,25.70
2022-10-15T14:50:33.972Z,23.90
2022-10-15T14:58:58.246Z,26.00
2022-10-15T15:07:21.338Z,24.60
2022-10-15T15:15:44.239Z,28.80
2022-10-15T15:24:08.473Z,29.20
2022-10-15T15:32:31.163Z,29.20
2022-10-15T15:40:53.887Z,24.30
2022-10-15T15:49:16.705Z,27.70
2022-10-15T15:57:39.874Z,34.50
2022-10-15T16:06:05.054Z,36.40
2022-10-15T16:14:28.251Z,31.10
2022-10-15T16:22:52.711Z,30.30
2022-10-15T16:31:26.457Z,31.90
2022-10-15T16:39:52.816Z,33.90
2022-10-15T16:48:15.530Z,31.70
2022-10-15T16:56:38.639Z,32.10
2022-10-15T17:05:01.372Z,38.50
2022-10-15T17:13:24.188Z,24.50
2022-10-15T17:21:47.625Z,28.60
2022-10-15T17:30:10.657Z,30.10
2022-10-15T17:38:33.441Z,28.00
2022-10-15T17:46:56.091Z,31.20
2022-10-15T17:55:25.187Z,29.70
2022-10-15T18:03:49.183Z,27.90
2022-10-15T18:12:15.821Z,31.40
2022-10-15T18:20:40.786Z,35.40
2022-10-15T18:29:03.635Z,31.90
2022-10-15T18:37:26.767Z,29.70
2022-10-15T18:45:49.869Z,38.90
2022-10-15T18:54:13.669Z,40.50
2022-10-15T19:02:36.365Z,33.60
2022-10-15T19:11:08.619Z,39.00
2022-10-15T19:19:36.074Z,32.20
2022-10-15T19:28:01.214Z,32.90
2022-10-15T19:36:27.345Z,30.20
2022-10-15T19:44:50.046Z,33.80
2022-10-15T19:53:16.530Z,31.50
2022-10-15T20:01:39.546Z,26.80
2022-10-15T20:10:02.401Z,28.60
2022-10-15T20:18:25.048Z,27.30
2022-10-15T20:26:49.837Z,35.20
2022-10-15T20:35:12.969Z,24.20
2022-10-15T20:43:35.920Z,27.10
2022-10-15T20:51:58.900Z,24.70
2022-10-15T21:00:22.595Z,24.10
2022-10-15T21:08:45.303Z,25.40
2022-10-15T21:17:08.001Z,31.60
2022-10-15T21:25:30.756Z,34.70
2022-10-15T21:33:55.182Z,30.50
2022-10-15T21:42:17.992Z,28.00
2022-10-15T21:50:46.319Z,26.70
2022-10-15T21:59:10.713Z,23.40
2022-10-15T22:07:35.337Z,22.90
2022-10-15T22:16:00.352Z,22.60
2022-10-15T22:24:23.029Z,27.30
2022-10-15T22:32:45.702Z,29.20
2022-10-15T22:41:09.866Z,24.10
2022-10-15T22:49:32.539Z,27.40
2022-10-15T22:57:55.202Z,29.00
2022-10-15T23:06:19.891Z,28.20
2022-10-15T23:14:42.629Z,28.30
2022-10-15T23:23:06.498Z,22.60
2022-10-15T23:31:33.312Z,21.60
2022-10-15T23:39:56.082Z,31.10
2022-10-15T23:48:19.216Z,25.10
2022-10-15T23:56:42.166Z,21.40
